stockwatch.com alexa rank chart, stockwatch.com alexa rank daily changes

stockwatch.com alexa rank chart, stockwatch.com alexa rank daily changes

stockwatch.com
Actual rank:
45 764

RANK HISTORY

Date Rank Diff
2016/12/04 45 764 -283
2016/12/02 46 047 -353
2016/12/01 46 400 -1 634
2016/11/30 48 034 -105
2016/11/29 48 139 +1 471
2016/11/28 46 668 +1 392
2016/11/27 45 276 +1 275
2016/11/26 44 001 +1 031
2016/11/25 42 970 -1 084
2016/11/24 44 054 -1 821
2016/11/23 45 875 +2 399
2016/11/19 43 476 +377
2016/11/18 43 099 -808
2016/11/17 43 907 -1 193
2016/11/16 45 100 -795
2016/11/15 45 895 +959
2016/11/14 44 936 +544
2016/11/13 44 392 +100
2016/11/12 44 292 -1 070
2016/11/11 45 362 -1 244
2016/11/10 46 606 -1 145
2016/11/09 47 751 +315
2016/11/08 47 436 +1 608
2016/11/07 45 828 +540
2016/11/06 45 288 -182
2016/11/05 45 470 +314
2016/11/04 45 156 -1 159
2016/11/03 46 315 -1 024
2016/11/02 47 339 -25
2016/11/01 47 364 +696
2016/10/31 46 668 +860
2016/10/30 45 808 +313
2016/10/29 45 495 -722
2016/10/28 46 217 -821
2016/10/27 47 038 -2 597
2016/10/26 49 635 -2 518
2016/10/25 52 153 +1 797
2016/10/24 50 356 +1 233
2016/10/23 49 123 -448
2016/10/22 49 571 -249
2016/10/21 49 820 +10
2016/10/20 49 810 -1 439
2016/10/19 51 249 -1 052
2016/10/18 52 301 +1 654
2016/10/17 50 647 +669
2016/10/16 49 978 +1 243
2016/10/15 48 735 +7 851
2016/10/14 40 884 +19
2016/10/13 40 865 +586
2016/10/12 40 279 -740
2016/10/11 41 019 -372
2016/10/10 41 391 -81
2016/10/09 41 472 +1 050
2016/10/08 40 422 -4 734
2016/10/07 45 156 +7 442
2016/10/06 37 714 -9 240
2016/10/05 46 954

WIDGET FOR YOUR SITE

DOMAINS WITH THE NEAREST RANK

Domain Rank
activegate-ss.jp 45 759
fatalgame.com 45 760
digiturk.com.tr 45 761
bashooka.com 45 762
khabar.kz 45 763
stockwatch.com 45 764
hobby-site.org 45 765
clickoptimized.com 45 766
cimaflash.com 45 767
ohotniki.ru 45 768
difundir.org 45 769

DOMAINS WITH THE NEAREST RANK BY TLD .com

Domain Rank
gamesforthebrain.com 45 753
despiertavivimosenunamentira.com 45 754
goclio.com 45 755
fatalgame.com 45 760
bashooka.com 45 762
stockwatch.com 45 764
clickoptimized.com 45 766
cimaflash.com 45 767
solowrestling.com 45 770
bpm-power.com 45 774
flipit.com 45 775